Appleton, Minnesota
Current Conditions -  °F | °C
As of 2:34 AM on Saturday 25 Oct 2014 (Local Time) from KAQP Reporting Station
Scattered Clouds Scattered Clouds  
Wind Chill: 57°   Ceiling: Unl
Heat Index: 57°   Visibility: 10mi
Dew Point: 37°   Wind: 10mph
Humidity: 48%   Direction: 300°WNW
Pressure: 30.01"   Gusts: NA
Location:  45.2°N, 96.02°W
Report Text: KAQP 250734Z AUTO 30009KT 10SM SCT120 14/03 A3001 RMK AO2
Loading
Personal Weather Stations






























Interactive Weather Map
Tropical Storm Tracking
New forecast layout! Learn more

10-Day Weather Forecast

Advertisements
Track Severe Weather on mobile